ADDS METAR Data INFO
IDs: Format: Raw Decoded Include TAF

Data at: 1533 UTC 18 Jun 2018

KLNP 181515Z AUTO 22004KT 10SM CLR 27/20 A3026 RMK AO2
KLNP 181455Z AUTO 29004KT 10SM SCT026 27/20 A3026 RMK AO2
KLNP 181435Z AUTO 00000KT 10SM CLR 27/20 A3026 RMK AO2
KLNP 181415Z AUTO 26003KT 10SM CLR 26/20 A3026 RMK AO2
KLNP 181355Z AUTO 24003KT 10SM CLR 26/20 A3026 RMK AO2
KLNP 181335Z AUTO 25005KT 10SM CLR 26/20 A3026 RMK AO2
KLNP 181315Z AUTO 22004KT 10SM CLR 25/20 A3026 RMK AO2
KLNP 181255Z AUTO 22004KT 10SM CLR 25/20 A3027 RMK AO2
KLNP 181235Z AUTO 25003KT 10SM CLR 25/20 A3028 RMK AO2
KLNP 181215Z AUTO 25004KT 10SM CLR 24/20 A3026 RMK AO2
KLNP 181155Z AUTO 00000KT 10SM CLR 23/21 A3027 RMK AO2
KLNP 181135Z AUTO 23003KT 10SM CLR 22/22 A3026 RMK AO2
KLNP 181115Z AUTO 21003KT 10SM CLR 21/21 A3026 RMK AO2
KLNP 181055Z AUTO 21003KT 10SM CLR 20/20 A3026 RMK AO2
KLNP 181035Z AUTO 23004KT 10SM CLR 19/19 A3026 RMK AO2
KLNP 181015Z AUTO 22003KT 10SM CLR 20/20 A3026 RMK AO2
KLNP 180955Z AUTO 00000KT 10SM CLR 20/20 A3025 RMK AO2
KLNP 180935Z AUTO 00000KT 10SM CLR 20/20 A3025 RMK AO2
KLNP 180915Z AUTO 00000KT 10SM CLR 20/20 A3025 RMK AO2
KLNP 180855Z AUTO 22003KT 10SM CLR 20/20 A3025 RMK AO2
KLNP 180835Z AUTO 00000KT 10SM CLR 20/20 A3025 RMK AO2
KLNP 180815Z AUTO 00000KT 10SM CLR 21/21 A3024 RMK AO2
KLNP 180755Z AUTO 26003KT 10SM CLR 20/20 A3024 RMK AO2
KLNP 180735Z AUTO 00000KT 10SM CLR 21/19 A3024 RMK AO2
KLNP 180715Z AUTO 00000KT 10SM CLR 21/19 A3024 RMK AO2
KLNP 180655Z AUTO 22003KT 10SM CLR 21/20 A3024 RMK AO2
KLNP 180635Z AUTO 23004KT 10SM CLR 21/19 A3024 RMK AO2
KLNP 180615Z AUTO 22004KT 10SM CLR 21/20 A3024 RMK AO2
KLNP 180555Z AUTO 22004KT 10SM CLR 20/18 A3024 RMK AO2
KLNP 180535Z AUTO 22003KT 10SM CLR 21/18 A3025 RMK AO2
KLNP 180515Z AUTO 23004KT 10SM CLR 20/20 A3025 RMK AO2
KLNP 180455Z AUTO 24004KT 10SM CLR 21/18 A3025 RMK AO2
KLNP 180435Z AUTO 00000KT 10SM CLR 21/18 A3025 RMK AO2
KLNP 180415Z AUTO 00000KT 10SM CLR 22/18 A3024 RMK AO2
KLNP 180355Z AUTO 20003KT 10SM CLR 22/18 A3024 RMK AO2
KLNP 180335Z AUTO 00000KT 10SM CLR 22/18 A3024 RMK AO2
KLNP 180315Z AUTO 00000KT 10SM CLR 22/18 A3024 RMK AO2
KLNP 180255Z AUTO 19004KT 10SM CLR 21/18 A3024 RMK AO2
KLNP 180235Z AUTO 00000KT 10SM CLR 23/18 A3024 RMK AO2
KLNP 180215Z AUTO 00000KT 10SM CLR 22/18 A3023 RMK AO2
KLNP 180155Z AUTO 00000KT 10SM CLR 23/19 A3023 RMK AO2
KLNP 180135Z AUTO 19003KT 10SM CLR 22/20 A3023 RMK AO2
KLNP 180115Z AUTO 00000KT 10SM CLR 25/20 A3023 RMK AO2
KLNP 180055Z AUTO 00000KT 10SM CLR 25/20 A3022 RMK AO2
KLNP 180035Z AUTO 00000KT 10SM CLR 26/20 A3023 RMK AO2
KLNP 180015Z AUTO 26003KT 10SM CLR 26/20 A3022 RMK AO2
KLNP 172350Z AUTO 28003KT 10SM CLR 27/20 A3023 RMK AO2
KLNP 172335Z AUTO 28004KT 10SM SCT046 28/20 A3022 RMK AO2
KLNP 172315Z AUTO 00000KT 10SM BKN046 28/20 A3021 RMK AO2
KLNP 172255Z AUTO 00000KT 10SM SCT046 SCT055 28/18 A3021 RMK AO2
KLNP 172235Z AUTO 00000KT 10SM SCT046 SCT055 28/18 A3022 RMK AO2
KLNP 172215Z AUTO 00000KT 10SM CLR 28/18 A3022 RMK AO2 LTG DSNT N
KLNP 172155Z AUTO 00000KT 10SM SCT050 28/19 A3022 RMK AO2
KLNP 172135Z AUTO 00000KT 10SM BKN050 29/18 A3023 RMK AO2 LTG DSNT E
KLNP 172115Z AUTO 00000KT 10SM CLR 30/18 A3023 RMK AO2 LTG DSNT E
KLNP 172055Z AUTO 01003KT 10SM SCT050 30/17 A3022 RMK AO2 LTG DSNT E
KLNP 172035Z AUTO 00000KT 10SM SCT050 31/17 A3022 RMK AO2
KLNP 172015Z AUTO 04005KT 10SM SCT050 30/18 A3023 RMK AO2
KLNP 171955Z AUTO 08003KT 10SM SCT050 30/17 A3024 RMK AO2
KLNP 171935Z AUTO 35005KT 10SM SCT050 30/18 A3024 RMK AO2
KLNP 171915Z AUTO 04005KT 10SM CLR 29/17 A3024 RMK AO2
KLNP 171855Z AUTO 00000KT 10SM SCT049 30/17 A3024 RMK AO2
KLNP 171835Z AUTO 31003KT 10SM SCT049 29/17 A3025 RMK AO2
KLNP 171815Z AUTO 00000KT 10SM CLR 30/17 A3025 RMK AO2
KLNP 171755Z AUTO 00000KT 10SM CLR 29/16 A3026 RMK AO2
KLNP 171735Z AUTO 24003KT 10SM CLR 29/17 A3026 RMK AO2
KLNP 171715Z AUTO 00000KT 10SM CLR 28/16 A3026 RMK AO2
KLNP 171655Z AUTO 03006KT 10SM CLR 29/17 A3027 RMK AO2
KLNP 171635Z AUTO 00000KT 10SM SCT044 28/17 A3027 RMK AO2
KLNP 171615Z AUTO 00000KT 10SM CLR 28/17 A3027 RMK AO2
KLNP 171555Z AUTO 34004KT 10SM CLR 28/16 A3028 RMK AO2
KLNP 171535Z AUTO 32004KT 10SM CLR 28/17 A3028 RMK AO2
KLNP 171515Z AUTO 32004KT 10SM CLR 27/17 A3026 RMK AO2
KLNP 171455Z AUTO 02003KT 10SM CLR 27/17 A3026 RMK AO2
KLNP 171435Z AUTO 28003KT 10SM CLR 27/17 A3026 RMK AO2
KLNP 171415Z AUTO 30003KT 10SM CLR 27/18 A3027 RMK AO2
KLNP 171355Z AUTO 24003KT 10SM CLR 26/18 A3027 RMK AO2
KLNP 171335Z AUTO 26003KT 10SM CLR 26/18 A3027 RMK AO2
KLNP 171315Z AUTO 24003KT 10SM CLR 25/19 A3026 RMK AO2
KLNP 171255Z AUTO 24004KT 10SM CLR 24/18 A3026 RMK AO2
KLNP 171235Z AUTO 25003KT 10SM CLR 23/18 A3025 RMK AO2
KLNP 171215Z AUTO 25003KT 10SM CLR 22/18 A3025 RMK AO2 LTG DSNT S
KLNP 171155Z AUTO 00000KT 10SM CLR 22/17 A3025 RMK AO2
KLNP 171135Z AUTO 00000KT 10SM CLR 21/17 A3024 RMK AO2
KLNP 171115Z AUTO 22004KT 10SM CLR 20/17 A3023 RMK AO2
KLNP 171055Z AUTO 00000KT 10SM CLR 19/16 A3023 RMK AO2
KLNP 171035Z AUTO 20003KT 10SM CLR 19/16 A3022 RMK AO2
KLNP 171015Z AUTO 00000KT 10SM CLR 20/16 A3021 RMK AO2
KLNP 170955Z AUTO 21004KT 10SM CLR 20/16 A3021 RMK AO2
KLNP 170935Z AUTO 20003KT 10SM CLR 20/16 A3020 RMK AO2
KLNP 170915Z AUTO 20004KT 10SM CLR 19/16 A3019 RMK AO2
KLNP 170855Z AUTO 21003KT 10SM CLR 20/16 A3018 RMK AO2
KLNP 170835Z AUTO 22004KT 10SM CLR 19/16 A3018 RMK AO2
KLNP 170810Z AUTO 00000KT 10SM CLR 21/16 A3018 RMK AO2
KLNP 170755Z AUTO 00000KT 10SM CLR 20/16 A3018 RMK AO2
KLNP 170735Z AUTO 21003KT 10SM CLR 19/16 A3018 RMK AO2
KLNP 170715Z AUTO 21003KT 10SM CLR 19/15 A3019 RMK AO2
KLNP 170655Z AUTO 00000KT 10SM CLR 20/16 A3020 RMK AO2
KLNP 170635Z AUTO 20003KT 10SM CLR 20/16 A3020 RMK AO2
KLNP 170615Z AUTO 00000KT 10SM CLR 20/16 A3021 RMK AO2
KLNP 170555Z AUTO 00000KT 10SM CLR 20/16 A3021 RMK AO2
KLNP 170535Z AUTO 00000KT 10SM CLR 21/16 A3021 RMK AO2
KLNP 170515Z AUTO 00000KT 10SM CLR 22/16 A3022 RMK AO2
KLNP 170455Z AUTO 00000KT 10SM CLR 20/16 A3021 RMK AO2
KLNP 170435Z AUTO 00000KT 10SM CLR 23/16 A3021 RMK AO2
KLNP 170415Z AUTO 00000KT 10SM CLR 22/16 A3021 RMK AO2
KLNP 170355Z AUTO 00000KT 10SM CLR 23/16 A3021 RMK AO2
KLNP 170335Z AUTO 04003KT 10SM CLR 23/16 A3021 RMK AO2